sensor_id;sensor_type;location;lat;lon;timestamp;temperature;humidity
51982;DHT22;37998;53.416;6.730;2023-08-17T00:00:27;17.20;99.90
51982;DHT22;37998;53.416;6.730;2023-08-17T00:02:53;17.20;99.90
51982;DHT22;37998;53.416;6.730;2023-08-17T00:05:19;17.20;99.90
51982;DHT22;37998;53.416;6.730;2023-08-17T00:07:45;17.20;99.90
51982;DHT22;37998;53.416;6.730;2023-08-17T00:10:11;17.20;99.90
51982;DHT22;37998;53.416;6.730;2023-08-17T00:12:37;17.20;99.90
51982;DHT22;37998;53.416;6.730;2023-08-17T00:15:03;17.20;99.90
51982;DHT22;37998;53.416;6.730;2023-08-17T00:17:30;17.30;99.90
51982;DHT22;37998;53.416;6.730;2023-08-17T00:19:56;17.20;99.90
51982;DHT22;37998;53.416;6.730;2023-08-17T00:22:21;17.30;99.90
51982;DHT22;37998;53.416;6.730;2023-08-17T00:24:47;17.30;99.90
51982;DHT22;37998;53.416;6.730;2023-08-17T00:27:13;17.30;99.90
51982;DHT22;37998;53.416;6.730;2023-08-17T00:29:39;17.30;99.90
51982;DHT22;37998;53.416;6.730;2023-08-17T00:32:05;18.00;99.90
51982;DHT22;37998;53.416;6.730;2023-08-17T00:34:31;17.30;99.90
51982;DHT22;37998;53.416;6.730;2023-08-17T00:36:59;17.30;99.90
51982;DHT22;37998;53.416;6.730;2023-08-17T00:39:25;17.30;99.90
51982;DHT22;37998;53.416;6.730;2023-08-17T00:41:51;17.30;99.90
51982;DHT22;37998;53.416;6.730;2023-08-17T00:44:18;17.30;99.90
51982;DHT22;37998;53.416;6.730;2023-08-17T00:46:44;17.30;99.90
51982;DHT22;37998;53.416;6.730;2023-08-17T00:49:12;17.30;99.90
51982;DHT22;37998;53.416;6.730;2023-08-17T00:51:38;17.20;99.90
51982;DHT22;37998;53.416;6.730;2023-08-17T00:54:05;17.20;99.90
51982;DHT22;37998;53.416;6.730;2023-08-17T00:56:31;17.20;99.90
51982;DHT22;37998;53.416;6.730;2023-08-17T00:58:57;17.20;99.90
51982;DHT22;37998;53.416;6.730;2023-08-17T01:01:24;17.10;99.90
51982;DHT22;37998;53.416;6.730;2023-08-17T01:03:50;17.10;99.90
51982;DHT22;37998;53.416;6.730;2023-08-17T01:06:16;17.10;99.90
51982;DHT22;37998;53.416;6.730;2023-08-17T01:08:42;17.10;99.90
51982;DHT22;37998;53.416;6.730;2023-08-17T01:14:22;17.10;99.90
51982;DHT22;37998;53.416;6.730;2023-08-17T01:17:03;17.10;99.90
51982;DHT22;37998;53.416;6.730;2023-08-17T01:19:32;17.10;99.90
51982;DHT22;37998;53.416;6.730;2023-08-17T01:22:05;17.10;99.90
51982;DHT22;37998;53.416;6.730;2023-08-17T01:24:31;17.10;99.90
51982;DHT22;37998;53.416;6.730;2023-08-17T01:26:57;17.10;99.90
51982;DHT22;37998;53.416;6.730;2023-08-17T01:29:23;17.10;99.90
51982;DHT22;37998;53.416;6.730;2023-08-17T01:31:54;17.10;99.90
51982;DHT22;37998;53.416;6.730;2023-08-17T01:34:24;17.10;99.90
51982;DHT22;37998;53.416;6.730;2023-08-17T01:36:54;17.10;99.90
51982;DHT22;37998;53.416;6.730;2023-08-17T01:39:26;17.10;99.90
51982;DHT22;37998;53.416;6.730;2023-08-17T01:41:55;17.10;99.90
51982;DHT22;37998;53.416;6.730;2023-08-17T01:44:22;17.10;99.90
51982;DHT22;37998;53.416;6.730;2023-08-17T01:46:50;17.10;99.90
51982;DHT22;37998;53.416;6.730;2023-08-17T01:49:16;17.20;99.90
51982;DHT22;37998;53.416;6.730;2023-08-17T01:51:42;17.20;99.90
51982;DHT22;37998;53.416;6.730;2023-08-17T01:54:08;17.20;99.90
51982;DHT22;37998;53.416;6.730;2023-08-17T01:56:34;17.20;99.90
51982;DHT22;37998;53.416;6.730;2023-08-17T01:59:00;17.20;99.90
51982;DHT22;37998;53.416;6.730;2023-08-17T02:01:26;17.20;99.90
51982;DHT22;37998;53.416;6.730;2023-08-17T02:03:52;17.30;99.90
51982;DHT22;37998;53.416;6.730;2023-08-17T02:06:18;17.20;99.90
51982;DHT22;37998;53.416;6.730;2023-08-17T02:08:45;17.20;99.90
51982;DHT22;37998;53.416;6.730;2023-08-17T02:11:11;17.30;99.90
51982;DHT22;37998;53.416;6.730;2023-08-17T02:13:38;17.30;99.90
51982;DHT22;37998;53.416;6.730;2023-08-17T02:16:04;17.30;99.90
51982;DHT22;37998;53.416;6.730;2023-08-17T02:18:30;17.30;99.90
51982;DHT22;37998;53.416;6.730;2023-08-17T02:20:58;17.30;99.90
51982;DHT22;37998;53.416;6.730;2023-08-17T02:23:24;17.30;99.90
51982;DHT22;37998;53.416;6.730;2023-08-17T02:25:52;17.30;99.90
51982;DHT22;37998;53.416;6.730;2023-08-17T02:28:21;17.30;99.90
51982;DHT22;37998;53.416;6.730;2023-08-17T02:30:47;17.30;99.90
51982;DHT22;37998;53.416;6.730;2023-08-17T02:33:14;16.60;99.90
51982;DHT22;37998;53.416;6.730;2023-08-17T02:35:40;17.20;99.90
51982;DHT22;37998;53.416;6.730;2023-08-17T02:38:06;17.20;99.90
51982;DHT22;37998;53.416;6.730;2023-08-17T02:40:32;17.20;99.90
51982;DHT22;37998;53.416;6.730;2023-08-17T02:42:58;17.10;99.90
51982;DHT22;37998;53.416;6.730;2023-08-17T02:45:24;17.10;99.90
51982;DHT22;37998;53.416;6.730;2023-08-17T02:47:50;17.10;99.90
51982;DHT22;37998;53.416;6.730;2023-08-17T02:50:16;17.10;99.90
51982;DHT22;37998;53.416;6.730;2023-08-17T02:52:42;17.10;99.90
51982;DHT22;37998;53.416;6.730;2023-08-17T02:55:08;17.10;99.90
51982;DHT22;37998;53.416;6.730;2023-08-17T02:57:34;17.10;99.90
51982;DHT22;37998;53.416;6.730;2023-08-17T03:00:00;17.10;99.90
51982;DHT22;37998;53.416;6.730;2023-08-17T03:02:29;17.00;99.90
51982;DHT22;37998;53.416;6.730;2023-08-17T03:04:55;17.00;99.90
51982;DHT22;37998;53.416;6.730;2023-08-17T03:07:21;17.00;99.90
51982;DHT22;37998;53.416;6.730;2023-08-17T03:09:47;17.00;99.90
51982;DHT22;37998;53.416;6.730;2023-08-17T03:12:13;17.10;99.90
51982;DHT22;37998;53.416;6.730;2023-08-17T03:14:39;17.10;99.90
51982;DHT22;37998;53.416;6.730;2023-08-17T03:17:05;17.10;99.90
51982;DHT22;37998;53.416;6.730;2023-08-17T03:19:31;17.10;99.90
51982;DHT22;37998;53.416;6.730;2023-08-17T03:21:57;17.10;99.90
51982;DHT22;37998;53.416;6.730;2023-08-17T03:24:23;17.20;99.90
51982;DHT22;37998;53.416;6.730;2023-08-17T03:26:51;17.20;99.90
51982;DHT22;37998;53.416;6.730;2023-08-17T03:29:17;17.20;99.90
51982;DHT22;37998;53.416;6.730;2023-08-17T03:31:43;17.20;99.90
51982;DHT22;37998;53.416;6.730;2023-08-17T03:34:09;17.20;99.90
51982;DHT22;37998;53.416;6.730;2023-08-17T03:36:35;17.20;99.90
51982;DHT22;37998;53.416;6.730;2023-08-17T03:39:01;17.20;99.90
51982;DHT22;37998;53.416;6.730;2023-08-17T03:41:27;17.20;99.90
51982;DHT22;37998;53.416;6.730;2023-08-17T03:43:53;17.20;99.90
51982;DHT22;37998;53.416;6.730;2023-08-17T03:46:24;17.20;99.90
51982;DHT22;37998;53.416;6.730;2023-08-17T03:48:50;17.20;99.90
51982;DHT22;37998;53.416;6.730;2023-08-17T03:51:16;17.20;99.90
51982;DHT22;37998;53.416;6.730;2023-08-17T03:53:42;17.20;99.90
51982;DHT22;37998;53.416;6.730;2023-08-17T03:56:08;17.20;99.90
51982;DHT22;37998;53.416;6.730;2023-08-17T03:58:34;17.10;99.90
51982;DHT22;37998;53.416;6.730;2023-08-17T04:01:00;17.10;99.90
51982;DHT22;37998;53.416;6.730;2023-08-17T04:03:29;17.10;99.90
51982;DHT22;37998;53.416;6.730;2023-08-17T04:05:55;17.10;99.90
51982;DHT22;37998;53.416;6.730;2023-08-17T04:08:21;17.10;99.90
51982;DHT22;37998;53.416;6.730;2023-08-17T04:10:47;17.10;99.90
51982;DHT22;37998;53.416;6.730;2023-08-17T04:13:13;17.00;99.90
51982;DHT22;37998;53.416;6.730;2023-08-17T04:15:39;17.00;99.90
51982;DHT22;37998;53.416;6.730;2023-08-17T04:18:05;16.90;99.90
51982;DHT22;37998;53.416;6.730;2023-08-17T04:20:31;16.90;99.90
51982;DHT22;37998;53.416;6.730;2023-08-17T04:22:57;16.90;99.90
51982;DHT22;37998;53.416;6.730;2023-08-17T04:25:23;16.90;99.90
51982;DHT22;37998;53.416;6.730;2023-08-17T04:27:49;16.80;99.90
51982;DHT22;37998;53.416;6.730;2023-08-17T04:30:15;16.80;99.90
51982;DHT22;37998;53.416;6.730;2023-08-17T04:32:50;16.80;99.90
51982;DHT22;37998;53.416;6.730;2023-08-17T04:35:19;16.80;99.90
51982;DHT22;37998;53.416;6.730;2023-08-17T04:37:46;16.70;99.90
51982;DHT22;37998;53.416;6.730;2023-08-17T04:40:15;16.70;99.90
51982;DHT22;37998;53.416;6.730;2023-08-17T04:42:42;16.70;99.90
51982;DHT22;37998;53.416;6.730;2023-08-17T04:45:08;16.70;99.90
51982;DHT22;37998;53.416;6.730;2023-08-17T04:47:39;16.80;99.90
51982;DHT22;37998;53.416;6.730;2023-08-17T04:50:06;16.80;99.90
51982;DHT22;37998;53.416;6.730;2023-08-17T04:52:33;16.70;99.90
51982;DHT22;37998;53.416;6.730;2023-08-17T04:54:59;16.80;99.90
51982;DHT22;37998;53.416;6.730;2023-08-17T04:57:25;16.80;99.90
51982;DHT22;37998;53.416;6.730;2023-08-17T04:59:53;16.80;99.90
51982;DHT22;37998;53.416;6.730;2023-08-17T05:02:19;16.80;99.90
51982;DHT22;37998;53.416;6.730;2023-08-17T05:04:46;16.80;99.90
51982;DHT22;37998;53.416;6.730;2023-08-17T05:07:12;16.80;99.90
51982;DHT22;37998;53.416;6.730;2023-08-17T05:09:38;16.80;99.90
51982;DHT22;37998;53.416;6.730;2023-08-17T05:12:07;16.80;99.90
51982;DHT22;37998;53.416;6.730;2023-08-17T05:14:33;16.80;99.90
51982;DHT22;37998;53.416;6.730;2023-08-17T05:16:59;16.80;99.90
51982;DHT22;37998;53.416;6.730;2023-08-17T05:19:28;16.80;99.90
51982;DHT22;37998;53.416;6.730;2023-08-17T05:21:55;16.80;99.90
51982;DHT22;37998;53.416;6.730;2023-08-17T05:24:21;16.80;99.90
51982;DHT22;37998;53.416;6.730;2023-08-17T05:26:47;16.80;99.90
51982;DHT22;37998;53.416;6.730;2023-08-17T05:29:16;16.80;99.90
51982;DHT22;37998;53.416;6.730;2023-08-17T05:31:42;16.80;99.90
51982;DHT22;37998;53.416;6.730;2023-08-17T05:34:09;16.90;99.90
51982;DHT22;37998;53.416;6.730;2023-08-17T05:36:36;16.80;99.90
51982;DHT22;37998;53.416;6.730;2023-08-17T05:39:02;16.80;99.90
51982;DHT22;37998;53.416;6.730;2023-08-17T05:41:29;16.80;99.90
51982;DHT22;37998;53.416;6.730;2023-08-17T05:43:55;16.80;99.90
51982;DHT22;37998;53.416;6.730;2023-08-17T05:46:21;16.90;99.90
51982;DHT22;37998;53.416;6.730;2023-08-17T05:48:47;16.90;99.90
51982;DHT22;37998;53.416;6.730;2023-08-17T05:51:13;17.00;99.90
51982;DHT22;37998;53.416;6.730;2023-08-17T05:53:39;17.00;99.90
51982;DHT22;37998;53.416;6.730;2023-08-17T05:56:05;17.10;99.90
51982;DHT22;37998;53.416;6.730;2023-08-17T05:58:31;17.10;99.90
51982;DHT22;37998;53.416;6.730;2023-08-17T06:01:07;17.10;99.90
51982;DHT22;37998;53.416;6.730;2023-08-17T06:03:34;17.20;99.90
51982;DHT22;37998;53.416;6.730;2023-08-17T06:06:00;17.20;99.90
51982;DHT22;37998;53.416;6.730;2023-08-17T06:08:26;17.20;99.90
51982;DHT22;37998;53.416;6.730;2023-08-17T06:10:52;17.30;99.90
51982;DHT22;37998;53.416;6.730;2023-08-17T06:13:18;17.30;99.90
51982;DHT22;37998;53.416;6.730;2023-08-17T06:15:44;17.30;99.90
51982;DHT22;37998;53.416;6.730;2023-08-17T06:18:10;17.40;99.90
51982;DHT22;37998;53.416;6.730;2023-08-17T06:20:36;17.40;99.90
51982;DHT22;37998;53.416;6.730;2023-08-17T06:23:02;17.50;99.90
51982;DHT22;37998;53.416;6.730;2023-08-17T06:25:29;17.50;99.90
51982;DHT22;37998;53.416;6.730;2023-08-17T06:27:55;17.60;99.90
51982;DHT22;37998;53.416;6.730;2023-08-17T06:30:21;17.60;99.90
51982;DHT22;37998;53.416;6.730;2023-08-17T06:32:47;17.60;99.90
51982;DHT22;37998;53.416;6.730;2023-08-17T06:35:13;17.60;99.90
51982;DHT22;37998;53.416;6.730;2023-08-17T06:37:39;17.70;99.90
51982;DHT22;37998;53.416;6.730;2023-08-17T06:40:06;17.70;99.90
51982;DHT22;37998;53.416;6.730;2023-08-17T06:42:32;17.80;99.90
51982;DHT22;37998;53.416;6.730;2023-08-17T06:44:58;17.80;99.90
51982;DHT22;37998;53.416;6.730;2023-08-17T06:47:24;17.80;99.90
51982;DHT22;37998;53.416;6.730;2023-08-17T06:49:50;17.80;99.90
51982;DHT22;37998;53.416;6.730;2023-08-17T06:52:16;17.80;99.90
51982;DHT22;37998;53.416;6.730;2023-08-17T06:54:42;17.80;99.90
51982;DHT22;37998;53.416;6.730;2023-08-17T06:57:08;17.80;99.90
51982;DHT22;37998;53.416;6.730;2023-08-17T06:59:34;17.90;99.90
51982;DHT22;37998;53.416;6.730;2023-08-17T07:02:00;17.90;99.90
51982;DHT22;37998;53.416;6.730;2023-08-17T07:04:26;17.90;99.90
51982;DHT22;37998;53.416;6.730;2023-08-17T07:06:52;17.90;99.90
51982;DHT22;37998;53.416;6.730;2023-08-17T07:09:18;17.90;99.90
51982;DHT22;37998;53.416;6.730;2023-08-17T07:11:44;18.00;99.90
51982;DHT22;37998;53.416;6.730;2023-08-17T07:14:10;18.00;99.90
51982;DHT22;37998;53.416;6.730;2023-08-17T07:16:36;18.00;99.90
51982;DHT22;37998;53.416;6.730;2023-08-17T07:19:02;18.20;99.90
51982;DHT22;37998;53.416;6.730;2023-08-17T07:21:28;18.30;99.90
51982;DHT22;37998;53.416;6.730;2023-08-17T07:23:55;18.30;99.90
51982;DHT22;37998;53.416;6.730;2023-08-17T07:26:21;18.30;99.90
51982;DHT22;37998;53.416;6.730;2023-08-17T07:28:48;18.40;99.90
51982;DHT22;37998;53.416;6.730;2023-08-17T07:31:14;18.50;99.90
51982;DHT22;37998;53.416;6.730;2023-08-17T07:33:41;18.50;99.90
51982;DHT22;37998;53.416;6.730;2023-08-17T07:36:06;18.50;99.90
51982;DHT22;37998;53.416;6.730;2023-08-17T07:38:33;18.40;99.90
51982;DHT22;37998;53.416;6.730;2023-08-17T07:40:59;18.40;99.90
51982;DHT22;37998;53.416;6.730;2023-08-17T07:43:25;18.40;99.90
51982;DHT22;37998;53.416;6.730;2023-08-17T07:45:55;18.30;99.90
51982;DHT22;37998;53.416;6.730;2023-08-17T07:48:21;18.20;99.90
51982;DHT22;37998;53.416;6.730;2023-08-17T07:50:51;18.20;99.90
51982;DHT22;37998;53.416;6.730;2023-08-17T07:53:18;18.20;99.90
51982;DHT22;37998;53.416;6.730;2023-08-17T07:55:44;18.20;99.90
51982;DHT22;37998;53.416;6.730;2023-08-17T07:58:10;18.30;99.90
51982;DHT22;37998;53.416;6.730;2023-08-17T08:00:36;18.30;99.90
51982;DHT22;37998;53.416;6.730;2023-08-17T08:03:02;18.30;99.90
51982;DHT22;37998;53.416;6.730;2023-08-17T08:05:28;18.40;99.90
51982;DHT22;37998;53.416;6.730;2023-08-17T08:07:54;18.50;99.90
51982;DHT22;37998;53.416;6.730;2023-08-17T08:10:20;18.60;99.90
51982;DHT22;37998;53.416;6.730;2023-08-17T08:12:46;18.70;99.90
51982;DHT22;37998;53.416;6.730;2023-08-17T08:15:12;18.70;99.90
51982;DHT22;37998;53.416;6.730;2023-08-17T08:17:38;18.70;99.90
51982;DHT22;37998;53.416;6.730;2023-08-17T08:20:05;18.70;99.90
51982;DHT22;37998;53.416;6.730;2023-08-17T08:22:31;18.60;99.90
51982;DHT22;37998;53.416;6.730;2023-08-17T08:24:57;18.70;99.90
51982;DHT22;37998;53.416;6.730;2023-08-17T08:27:23;18.60;99.90
51982;DHT22;37998;53.416;6.730;2023-08-17T08:29:50;18.60;99.90
51982;DHT22;37998;53.416;6.730;2023-08-17T08:32:16;18.10;99.90
51982;DHT22;37998;53.416;6.730;2023-08-17T08:34:42;18.70;99.90
51982;DHT22;37998;53.416;6.730;2023-08-17T08:37:08;18.80;99.90
51982;DHT22;37998;53.416;6.730;2023-08-17T08:39:48;18.80;99.90
51982;DHT22;37998;53.416;6.730;2023-08-17T08:42:15;18.90;99.90
51982;DHT22;37998;53.416;6.730;2023-08-17T08:44:41;18.90;99.90
51982;DHT22;37998;53.416;6.730;2023-08-17T08:47:08;18.90;99.90
51982;DHT22;37998;53.416;6.730;2023-08-17T08:49:38;18.80;99.90
51982;DHT22;37998;53.416;6.730;2023-08-17T08:52:07;18.80;99.90
51982;DHT22;37998;53.416;6.730;2023-08-17T08:54:35;18.90;99.90
51982;DHT22;37998;53.416;6.730;2023-08-17T08:57:06;18.90;99.90
51982;DHT22;37998;53.416;6.730;2023-08-17T08:59:35;18.80;99.90
51982;DHT22;37998;53.416;6.730;2023-08-17T09:02:03;18.90;99.90
51982;DHT22;37998;53.416;6.730;2023-08-17T09:04:29;19.00;99.90
51982;DHT22;37998;53.416;6.730;2023-08-17T09:06:56;19.00;99.90
51982;DHT22;37998;53.416;6.730;2023-08-17T09:09:23;19.10;99.90
51982;DHT22;37998;53.416;6.730;2023-08-17T09:11:49;19.10;99.90
51982;DHT22;37998;53.416;6.730;2023-08-17T09:14:15;19.00;99.90
51982;DHT22;37998;53.416;6.730;2023-08-17T09:16:44;19.10;99.90
51982;DHT22;37998;53.416;6.730;2023-08-17T09:19:10;19.10;99.90
51982;DHT22;37998;53.416;6.730;2023-08-17T09:21:36;19.10;99.90
51982;DHT22;37998;53.416;6.730;2023-08-17T09:24:02;19.10;99.90
51982;DHT22;37998;53.416;6.730;2023-08-17T09:26:31;19.10;99.90
51982;DHT22;37998;53.416;6.730;2023-08-17T09:29:00;19.20;99.90
51982;DHT22;37998;53.416;6.730;2023-08-17T09:31:41;19.20;99.90
51982;DHT22;37998;53.416;6.730;2023-08-17T09:34:07;19.30;99.90
51982;DHT22;37998;53.416;6.730;2023-08-17T09:36:35;19.30;99.90
51982;DHT22;37998;53.416;6.730;2023-08-17T09:39:01;19.40;99.90
51982;DHT22;37998;53.416;6.730;2023-08-17T09:41:27;19.40;99.90
51982;DHT22;37998;53.416;6.730;2023-08-17T09:43:54;19.40;99.90
51982;DHT22;37998;53.416;6.730;2023-08-17T09:46:21;19.40;99.90
51982;DHT22;37998;53.416;6.730;2023-08-17T09:48:47;19.40;99.90
51982;DHT22;37998;53.416;6.730;2023-08-17T09:51:17;19.40;99.90
51982;DHT22;37998;53.416;6.730;2023-08-17T09:53:43;19.30;99.90
51982;DHT22;37998;53.416;6.730;2023-08-17T09:56:10;19.30;99.90
51982;DHT22;37998;53.416;6.730;2023-08-17T09:58:39;19.40;99.90
51982;DHT22;37998;53.416;6.730;2023-08-17T10:01:05;19.30;99.90
51982;DHT22;37998;53.416;6.730;2023-08-17T10:03:33;19.30;99.90
51982;DHT22;37998;53.416;6.730;2023-08-17T10:06:09;19.40;99.90
51982;DHT22;37998;53.416;6.730;2023-08-17T10:08:44;19.50;99.90
51982;DHT22;37998;53.416;6.730;2023-08-17T10:11:12;19.60;99.90
51982;DHT22;37998;53.416;6.730;2023-08-17T10:13:51;19.80;99.90
51982;DHT22;37998;53.416;6.730;2023-08-17T10:16:28;19.80;99.90
51982;DHT22;37998;53.416;6.730;2023-08-17T10:21:55;20.00;99.90
51982;DHT22;37998;53.416;6.730;2023-08-17T10:24:23;20.10;99.90
51982;DHT22;37998;53.416;6.730;2023-08-17T10:26:52;20.10;99.90
51982;DHT22;37998;53.416;6.730;2023-08-17T10:29:21;20.30;99.90
51982;DHT22;37998;53.416;6.730;2023-08-17T10:31:49;20.50;99.90
51982;DHT22;37998;53.416;6.730;2023-08-17T10:34:15;20.60;99.90
51982;DHT22;37998;53.416;6.730;2023-08-17T10:36:42;20.60;99.90
51982;DHT22;37998;53.416;6.730;2023-08-17T10:39:22;20.50;99.90
51982;DHT22;37998;53.416;6.730;2023-08-17T10:41:50;20.50;99.90
51982;DHT22;37998;53.416;6.730;2023-08-17T10:44:51;20.50;99.90
51982;DHT22;37998;53.416;6.730;2023-08-17T10:52:34;20.10;99.90
51982;DHT22;37998;53.416;6.730;2023-08-17T10:55:08;20.00;99.90
51982;DHT22;37998;53.416;6.730;2023-08-17T10:57:39;19.80;99.90
51982;DHT22;37998;53.416;6.730;2023-08-17T11:00:20;19.80;99.90
51982;DHT22;37998;53.416;6.730;2023-08-17T11:03:00;19.70;99.90
51982;DHT22;37998;53.416;6.730;2023-08-17T11:05:49;19.60;99.90
51982;DHT22;37998;53.416;6.730;2023-08-17T11:11:08;19.70;99.90
51982;DHT22;37998;53.416;6.730;2023-08-17T11:13:40;19.90;99.90
51982;DHT22;37998;53.416;6.730;2023-08-17T11:16:08;19.90;99.90
51982;DHT22;37998;53.416;6.730;2023-08-17T11:18:34;19.80;99.90
51982;DHT22;37998;53.416;6.730;2023-08-17T11:21:02;19.80;99.90
51982;DHT22;37998;53.416;6.730;2023-08-17T11:23:30;19.80;99.90
51982;DHT22;37998;53.416;6.730;2023-08-17T11:25:56;19.80;99.90
51982;DHT22;37998;53.416;6.730;2023-08-17T11:28:26;19.80;99.90
51982;DHT22;37998;53.416;6.730;2023-08-17T11:31:02;19.90;99.90
51982;DHT22;37998;53.416;6.730;2023-08-17T11:33:30;19.90;99.90
51982;DHT22;37998;53.416;6.730;2023-08-17T11:36:02;19.90;99.90
51982;DHT22;37998;53.416;6.730;2023-08-17T11:38:32;20.00;99.90
51982;DHT22;37998;53.416;6.730;2023-08-17T11:40:59;20.10;99.90
51982;DHT22;37998;53.416;6.730;2023-08-17T11:43:27;20.20;99.90
51982;DHT22;37998;53.416;6.730;2023-08-17T11:45:54;20.30;99.90
51982;DHT22;37998;53.416;6.730;2023-08-17T11:48:21;20.20;99.90
51982;DHT22;37998;53.416;6.730;2023-08-17T11:50:48;20.10;99.90
51982;DHT22;37998;53.416;6.730;2023-08-17T11:53:14;20.10;99.90
51982;DHT22;37998;53.416;6.730;2023-08-17T11:55:41;20.00;99.90
51982;DHT22;37998;53.416;6.730;2023-08-17T11:58:07;20.00;99.90
51982;DHT22;37998;53.416;6.730;2023-08-17T12:00:41;20.00;99.90
51982;DHT22;37998;53.416;6.730;2023-08-17T12:03:07;20.00;99.90
51982;DHT22;37998;53.416;6.730;2023-08-17T12:05:33;19.80;99.90
51982;DHT22;37998;53.416;6.730;2023-08-17T12:08:00;19.90;99.90
51982;DHT22;37998;53.416;6.730;2023-08-17T12:10:28;20.00;99.90
51982;DHT22;37998;53.416;6.730;2023-08-17T12:12:57;20.10;99.90
51982;DHT22;37998;53.416;6.730;2023-08-17T12:15:24;20.30;99.90
51982;DHT22;37998;53.416;6.730;2023-08-17T12:17:51;20.40;99.90
51982;DHT22;37998;53.416;6.730;2023-08-17T12:20:21;20.40;99.90
51982;DHT22;37998;53.416;6.730;2023-08-17T12:22:48;20.20;99.90
51982;DHT22;37998;53.416;6.730;2023-08-17T12:25:14;20.20;99.90
51982;DHT22;37998;53.416;6.730;2023-08-17T12:27:41;20.20;99.90
51982;DHT22;37998;53.416;6.730;2023-08-17T12:30:31;20.10;99.90
51982;DHT22;37998;53.416;6.730;2023-08-17T12:32:58;20.10;99.90
51982;DHT22;37998;53.416;6.730;2023-08-17T12:35:25;20.20;99.90
51982;DHT22;37998;53.416;6.730;2023-08-17T12:37:52;20.20;99.90
51982;DHT22;37998;53.416;6.730;2023-08-17T12:40:18;20.20;99.90
51982;DHT22;37998;53.416;6.730;2023-08-17T12:42:44;20.30;99.90
51982;DHT22;37998;53.416;6.730;2023-08-17T12:45:10;20.30;99.90
51982;DHT22;37998;53.416;6.730;2023-08-17T12:47:36;20.30;99.90
51982;DHT22;37998;53.416;6.730;2023-08-17T12:50:05;20.30;99.90
51982;DHT22;37998;53.416;6.730;2023-08-17T12:52:31;20.30;99.90
51982;DHT22;37998;53.416;6.730;2023-08-17T12:54:57;20.30;99.90
51982;DHT22;37998;53.416;6.730;2023-08-17T12:57:23;20.30;99.90
51982;DHT22;37998;53.416;6.730;2023-08-17T12:59:49;20.20;99.90
51982;DHT22;37998;53.416;6.730;2023-08-17T13:02:15;20.10;99.90
51982;DHT22;37998;53.416;6.730;2023-08-17T13:04:41;20.10;99.90
51982;DHT22;37998;53.416;6.730;2023-08-17T13:07:07;20.10;99.90
51982;DHT22;37998;53.416;6.730;2023-08-17T13:09:33;20.10;99.90
51982;DHT22;37998;53.416;6.730;2023-08-17T13:11:59;20.00;99.90
51982;DHT22;37998;53.416;6.730;2023-08-17T13:14:25;20.00;99.90
51982;DHT22;37998;53.416;6.730;2023-08-17T13:16:51;20.00;99.90
51982;DHT22;37998;53.416;6.730;2023-08-17T13:19:18;19.90;99.90
51982;DHT22;37998;53.416;6.730;2023-08-17T13:21:44;20.00;99.90
51982;DHT22;37998;53.416;6.730;2023-08-17T13:24:13;20.00;99.90
51982;DHT22;37998;53.416;6.730;2023-08-17T13:26:39;20.00;99.90
51982;DHT22;37998;53.416;6.730;2023-08-17T13:29:05;20.10;99.90
51982;DHT22;37998;53.416;6.730;2023-08-17T13:31:31;20.10;99.90
51982;DHT22;37998;53.416;6.730;2023-08-17T13:33:57;20.10;99.90
51982;DHT22;37998;53.416;6.730;2023-08-17T13:36:23;20.10;99.90
51982;DHT22;37998;53.416;6.730;2023-08-17T13:38:49;20.00;99.90
51982;DHT22;37998;53.416;6.730;2023-08-17T13:41:15;20.00;99.90
51982;DHT22;37998;53.416;6.730;2023-08-17T13:43:44;20.00;99.90
51982;DHT22;37998;53.416;6.730;2023-08-17T13:46:27;20.00;99.90
51982;DHT22;37998;53.416;6.730;2023-08-17T13:48:53;20.00;99.90
51982;DHT22;37998;53.416;6.730;2023-08-17T13:51:19;20.00;99.90
51982;DHT22;37998;53.416;6.730;2023-08-17T13:53:45;20.00;99.90
51982;DHT22;37998;53.416;6.730;2023-08-17T13:56:11;20.00;99.90
51982;DHT22;37998;53.416;6.730;2023-08-17T13:58:37;20.10;99.90
51982;DHT22;37998;53.416;6.730;2023-08-17T14:01:03;20.10;99.90
51982;DHT22;37998;53.416;6.730;2023-08-17T14:03:29;20.10;99.90
51982;DHT22;37998;53.416;6.730;2023-08-17T14:05:56;20.00;99.90
51982;DHT22;37998;53.416;6.730;2023-08-17T14:08:22;20.00;99.90
51982;DHT22;37998;53.416;6.730;2023-08-17T14:10:48;20.00;99.90
51982;DHT22;37998;53.416;6.730;2023-08-17T14:13:14;20.00;99.90
51982;DHT22;37998;53.416;6.730;2023-08-17T14:15:40;20.10;99.90
51982;DHT22;37998;53.416;6.730;2023-08-17T14:18:06;20.20;99.90
51982;DHT22;37998;53.416;6.730;2023-08-17T14:20:32;20.20;99.90
51982;DHT22;37998;53.416;6.730;2023-08-17T14:22:58;20.20;99.90
51982;DHT22;37998;53.416;6.730;2023-08-17T14:25:24;20.20;99.90
51982;DHT22;37998;53.416;6.730;2023-08-17T14:27:50;20.30;99.90
51982;DHT22;37998;53.416;6.730;2023-08-17T14:30:16;20.30;99.90
51982;DHT22;37998;53.416;6.730;2023-08-17T14:32:42;20.40;99.90
51982;DHT22;37998;53.416;6.730;2023-08-17T14:35:10;20.30;99.90
51982;DHT22;37998;53.416;6.730;2023-08-17T14:37:36;20.40;99.90
51982;DHT22;37998;53.416;6.730;2023-08-17T14:40:05;20.30;99.90
51982;DHT22;37998;53.416;6.730;2023-08-17T14:42:32;20.30;99.90
51982;DHT22;37998;53.416;6.730;2023-08-17T14:44:57;20.20;99.90
51982;DHT22;37998;53.416;6.730;2023-08-17T14:47:23;20.20;99.90
51982;DHT22;37998;53.416;6.730;2023-08-17T14:49:49;20.20;99.90
51982;DHT22;37998;53.416;6.730;2023-08-17T14:52:15;20.20;99.90
51982;DHT22;37998;53.416;6.730;2023-08-17T14:54:41;20.20;99.90
51982;DHT22;37998;53.416;6.730;2023-08-17T14:57:07;20.20;99.90
51982;DHT22;37998;53.416;6.730;2023-08-17T14:59:36;20.10;99.90
51982;DHT22;37998;53.416;6.730;2023-08-17T15:02:02;20.10;99.90
51982;DHT22;37998;53.416;6.730;2023-08-17T15:04:28;20.10;99.90
51982;DHT22;37998;53.416;6.730;2023-08-17T15:06:54;20.10;99.90
51982;DHT22;37998;53.416;6.730;2023-08-17T15:09:20;20.20;99.90
51982;DHT22;37998;53.416;6.730;2023-08-17T15:11:46;20.20;99.90
51982;DHT22;37998;53.416;6.730;2023-08-17T15:14:12;20.10;99.90
51982;DHT22;37998;53.416;6.730;2023-08-17T15:16:38;20.10;99.90
51982;DHT22;37998;53.416;6.730;2023-08-17T15:19:04;20.00;99.90
51982;DHT22;37998;53.416;6.730;2023-08-17T15:21:30;19.90;99.90
51982;DHT22;37998;53.416;6.730;2023-08-17T15:23:56;20.00;99.90
51982;DHT22;37998;53.416;6.730;2023-08-17T15:26:22;20.10;99.90
51982;DHT22;37998;53.416;6.730;2023-08-17T15:28:48;20.10;99.90
51982;DHT22;37998;53.416;6.730;2023-08-17T15:31:14;20.00;99.90
51982;DHT22;37998;53.416;6.730;2023-08-17T15:33:42;20.00;99.90
51982;DHT22;37998;53.416;6.730;2023-08-17T15:36:08;20.00;99.90
51982;DHT22;37998;53.416;6.730;2023-08-17T15:38:34;20.00;99.90
51982;DHT22;37998;53.416;6.730;2023-08-17T15:41:03;20.00;99.90
51982;DHT22;37998;53.416;6.730;2023-08-17T15:43:29;19.90;99.90